Coimbatore Airport
VOCB : now visible

Airfield :











YOU CAN JOIN US ON...

 
LOGIN :

Register | Disclaimer

   EN    FR    IT 

 









Legend :    VFR   Marginal VFR   IFR   Intensive IFR   Very Intensive IFR
Visi :
Ceiling :
>= 8 km
>= 3000ft
5 to 8 km
1000 to 3000 ft
1500m to 5 km
500 to 1000 ft
800 to 1500m
200 to 500 ft
< 800m
< 200 ft
Symbols :   Thunderstorms  Fog  Heavy snow  Heavy precipitations  Wind > 20 kt






- Airport Elevation : 1324 ft
- IATA code : CJB


VOCB - Coimbatore

CURRENT METAR :
  • 192100Z 24013KT 5000 BR FEW015 25/21 Q1007 NOSIG

EXPIRED METARs :
  • 192000Z 24010G20KT 5000 BR FEW012 25/21 Q1007 NOSIG
  • 191900Z 24014KT 5000 BR FEW012 25/21 Q1007 NOSIG
  • 191830Z 23008KT 5000 BR FEW012 25/21 Q1008 NOSIG
  • 191800Z 25014KT 5000 BR FEW012 25/21 Q1008 NOSIG
  • 191730Z 25007G17KT 5000 BR FEW012 25/22 Q1009 NOSIG
  • 191700Z 26012KT 5000 BR FEW012 25/22 Q1009 NOSIG

TAF TAF VOCB
Valid from the 19 at 18:00 until the 21 at 00:00 UTC


191700Z 1918/2024 23015KT 5000 BR SCT012 BKN080
BECMG 2003/2004 23010G20KT 6000
BECMG 2018/2019 23015KT 5000 -DZ/BR
VOMF FIR / Asia



MET'MAP, your aeronautical weather chart ! - Copyright ORBIFLY December 2007 - Disclaimer

ORBIFLY MET'MAP TEAM :

Programming & Development : Alexandra Zaïnal
Original concept : Baudouin d'Aumeries
Technical & hardware support : Manuel Goepfert
Assistance : Marc-Olivier Méhu




SOURCES & CREDITS :

   NOAA       Earth
Advisory